Flight Track Log - Related Links

Times and Time Zones

All times are in EDT time to prevent confusion due to time zone crossing. See the THY964 flight status page for this flight to view local times or setup timezone preferences in your user account.

Time Position Orientation Groundspeed Altitude Reporting Facility
EDT Latitude Longitude Course Direction KTS MPH feet Rate Location/Type
Tue 04:41:42 PM 40.9760 28.8070 90° East 105 121  Level FlightAware ADS-B
Tue 04:42:06 PM 40.9940 28.8060 358° North 165 190 500 1,773 Climbing FlightAware ADS-B
Tue 04:42:26 PM 41.0090 28.8060 360° North 177 204 1,300 1,610 Climbing FlightAware ADS-B
Tue 04:42:47 PM 41.0240 28.8060 360° North 175 201 1,600 1,297 Climbing FlightAware ADS-B
Tue 04:43:03 PM 41.0440 28.8060 360° North 230 265 2,100 2,045 Climbing FlightAware ADS-B
Tue 04:43:31 PM 41.0740 28.8150 13° North 264 304 3,100 2,057 Climbing FlightAware ADS-B
Tue 04:43:38 PM 41.0800 28.8230 45° Northeast 274 315 3,300 1,636 Climbing FlightAware ADS-B
Tue 04:43:42 PM 41.0830 28.8290 56° Northeast 281 323 3,400 1,846 Climbing FlightAware ADS-B
Tue 04:43:51 PM 41.0860 28.8450 76° East 290 334 3,700 3,000 Climbing FlightAware ADS-B
Tue 04:44:10 PM 41.0900 28.8780 81° East 294 338 4,800 3,273 Climbing FlightAware ADS-B
Tue 04:44:35 PM 41.0960 28.9250 80° East 301 346 6,100 2,933 Climbing FlightAware ADS-B
Tue 04:44:55 PM 41.1010 28.9610 80° East 312 359 7,000 2,615 Climbing FlightAware ADS-B
Tue 04:45:14 PM 41.1060 28.9990 80° East 322 371 7,800 2,500 Climbing FlightAware ADS-B
Tue 04:45:43 PM 41.0920 29.0510 110° East 338 389 9,000 2,545 Climbing FlightAware ADS-B
Tue 04:45:47 PM 41.0870 29.0590 130° Southeast 338 389 9,200 2,769 Climbing FlightAware ADS-B
Tue 04:45:56 PM 41.0760 29.0680 148° Southeast 340 391 9,600 2,870 Climbing FlightAware ADS-B
Tue 04:46:33 PM 41.0260 29.1100 148° Southeast 346 398 11,400 2,870 Climbing FlightAware ADS-B
Tue 04:47:05 PM 40.9810 29.1490 147° Southeast 358 412 12,900 2,620 Climbing FlightAware ADS-B
Tue 04:47:44 PM 40.9270 29.1960 147° Southeast 374 430 14,500 2,609 Climbing FlightAware ADS-B
Tue 04:48:14 PM 40.8830 29.2340 147° Southeast 382 440 15,900 2,776 Climbing FlightAware ADS-B
Tue 04:48:51 PM 40.8270 29.2820 147° Southeast 390 449 17,600 2,676 Climbing FlightAware ADS-B
Tue 04:49:28 PM 40.7690 29.3320 147° Southeast 401 461 19,200 2,286 Climbing FlightAware ADS-B
Tue 04:49:54 PM 40.7290 29.3660 147° Southeast 413 475 20,000 1,826 Climbing FlightAware ADS-B
Tue 04:50:37 PM 40.6600 29.4250 147° Southeast 429 494 21,300 1,931 Climbing FlightAware ADS-B
Tue 04:51:21 PM 40.5820 29.4910 147° Southeast 448 516 22,800 2,108 Climbing FlightAware ADS-B
Tue 04:51:51 PM 40.5300 29.5360 147° Southeast 456 525 23,900 1,890 Climbing FlightAware ADS-B
Tue 04:52:34 PM 40.4600 29.5950 147° Southeast 463 533 25,100 1,747 Climbing FlightAware ADS-B
Tue 04:53:10 PM 40.3860 29.6420 154° Southeast 468 539 26,200 1,714 Climbing FlightAware ADS-B
Tue 04:53:44 PM 40.3160 29.6790 158° South 470 541 27,100 1,565 Climbing FlightAware ADS-B
Tue 04:54:19 PM 40.2470 29.7160 158° South 486 559 28,000 1,606 Climbing FlightAware ADS-B
Tue 04:54:55 PM 40.1710 29.7560 158° South 484 557 29,000 1,558 Climbing FlightAware ADS-B
Tue 04:55:36 PM 40.0870 29.8000 158° South 487 560 30,000 1,360 Climbing FlightAware ADS-B
Tue 04:56:10 PM 40.0070 29.8410 159° South 499 574 30,700 870 Climbing FlightAware ADS-B
Tue 04:56:45 PM 39.9350 29.8910 152° Southeast 500 575 31,000 257 Climbing FlightAware ADS-B
Tue 04:57:20 PM 39.8760 29.9570 139° Southeast 505 581 31,000 429 Level FlightAware ADS-B
Tue 04:57:55 PM 39.8100 30.0330 138° Southeast 503 579 31,500 593 Climbing FlightAware ADS-B
Tue 04:58:41 PM 39.7410 30.1150 138° Southeast 503 579 31,800 732 Climbing FlightAware ADS-B
Tue 04:59:17 PM 39.6770 30.1910 138° Southeast 505 581 32,500 583 Climbing FlightAware ADS-B
Tue 04:59:53 PM 39.6240 30.2540 138° Southeast 505 581 32,500 441 Level FlightAware ADS-B
Tue 05:00:25 PM 39.5550 30.3320 139° Southeast 506 582 33,000 441 Climbing FlightAware ADS-B
Tue 05:01:01 PM 39.4920 30.4040 139° Southeast 495 570 33,000 741 Level FlightAware ADS-B
Tue 05:01:46 PM 39.4040 30.4850 145° Southeast 484 557 34,000 805 Climbing FlightAware ADS-B
Tue 05:02:23 PM 39.3480 30.5350 145° Southeast 482 555 34,100 783 Climbing FlightAware ADS-B
Tue 05:02:55 PM 39.2710 30.5990 147° Southeast 485 558 34,900 701 Climbing FlightAware ADS-B
Tue 05:03:40 PM 39.1870 30.6700 147° Southeast 482 555 35,000 73 Climbing FlightAware ADS-B
Tue 05:04:17 PM 39.1190 30.7270 147° Southeast 481 554 35,000  Level FlightAware ADS-B
Tue 05:04:56 PM 39.0460 30.7880 147° Southeast 481 554 35,000  Level FlightAware ADS-B
Tue 05:05:44 PM 38.9690 30.8550 146° Southeast 481 554 35,000  Level FlightAware ADS-B
Tue 05:06:20 PM 38.9130 30.9040 146° Southeast 481 554 35,000  Level FlightAware ADS-B
Tue 05:06:56 PM 38.8560 30.9530 146° Southeast 481 554 35,000  Level FlightAware ADS-B
Tue 05:07:26 PM 38.7740 31.0170 149° Southeast 482 555 35,000  Level FlightAware ADS-B
Tue 05:08:05 PM 38.7120 31.0700 146° Southeast 482 555 35,000  Level FlightAware ADS-B
Tue 05:08:41 PM 38.6560 31.1180 146° Southeast 482 555 35,000  Level FlightAware ADS-B
Tue 05:11:00 PM 38.4201 31.2864 151° Southeast  Level Estimated
Tue 05:11:24 PM 38.3260 31.3880 151° Southeast 476 548 35,000  Level FlightAware ADS-B
Tue 05:12:05 PM 38.2620 31.4400 147° Southeast 476 548 35,000  Level FlightAware ADS-B
Tue 05:12:39 PM 38.1860 31.5020 147° Southeast 475 547 35,000  Level FlightAware ADS-B
Tue 05:13:19 PM 38.1140 31.5610 147° Southeast 475 547 35,000  Level FlightAware ADS-B
Tue 05:13:49 PM 38.0590 31.6060 147° Southeast 476 548 35,000  Level FlightAware ADS-B
Tue 05:14:29 PM 37.9850 31.6670 147° Southeast 477 549 35,000  Level FlightAware ADS-B
Tue 05:15:04 PM 37.9170 31.7210 148° Southeast 477 549 35,000  Level FlightAware ADS-B
Tue 05:15:34 PM 37.8600 31.7680 147° Southeast 477 549 35,000  Level FlightAware ADS-B
Tue 05:16:09 PM 37.7950 31.8210 147° Southeast 477 549 35,000  Level FlightAware ADS-B
Tue 05:16:49 PM 37.7210 31.8810 147° Southeast 476 548 35,000  Level FlightAware ADS-B
Tue 05:17:19 PM 37.6650 31.9250 148° Southeast 474 545 35,000  Level FlightAware ADS-B
Tue 05:17:54 PM 37.6030 31.9760 147° Southeast 473 544 35,000  Level FlightAware ADS-B
Tue 05:18:34 PM 37.5270 32.0370 148° Southeast 465 535 35,000  Level FlightAware ADS-B
Tue 05:19:09 PM 37.4640 32.0860 148° Southeast 464 534 35,000  Level FlightAware ADS-B
Tue 05:19:39 PM 37.4080 32.1310 147° Southeast 463 533 35,000  Level FlightAware ADS-B
Tue 05:20:14 PM 37.3420 32.1840 147° Southeast 463 533 35,000  Level FlightAware ADS-B
Tue 05:20:54 PM 37.2720 32.2390 148° Southeast 462 532 35,000  Level FlightAware ADS-B
Tue 05:21:24 PM 37.2180 32.2830 147° Southeast 460 529 35,000  Level FlightAware ADS-B
Tue 05:21:59 PM 37.1570 32.3310 148° Southeast 460 529 35,000  Level FlightAware ADS-B
Tue 05:22:34 PM 37.0890 32.3850 148° Southeast 460 529 35,000  Level FlightAware ADS-B
Tue 05:23:15 PM 37.0140 32.4440 148° Southeast 460 529 35,000  Level FlightAware ADS-B
Tue 05:23:54 PM 36.9390 32.5030 148° Southeast 460 529 35,000 -243 Level FlightAware ADS-B
Tue 05:24:29 PM 36.8790 32.5500 148° Southeast 460 529 34,700 -943 Descending FlightAware ADS-B
Tue 05:25:04 PM 36.8140 32.6000 148° Southeast 461 531 33,900 -1,500 Descending FlightAware ADS-B
Tue 05:25:45 PM 36.7380 32.6600 148° Southeast 462 532 32,800 -1,680 Descending FlightAware ADS-B
Tue 05:26:19 PM 36.6770 32.7080 148° Southeast 473 544 31,800 -1,865 Descending FlightAware ADS-B
Tue 05:26:59 PM 36.5980 32.7670 149° Southeast 473 544 30,500 -2,182 Descending FlightAware ADS-B
Tue 05:27:47 PM 36.5070 32.8340 149° Southeast 455 524 28,600 -2,292 Descending FlightAware ADS-B
Tue 05:28:28 PM 36.4330 32.8890 149° Southeast 451 519 27,100 -2,320 Descending FlightAware ADS-B
Tue 05:29:02 PM 36.3710 32.9360 149° Southeast 438 504 25,700 -1,457 Descending FlightAware ADS-B
Tue 05:29:38 PM 36.3200 32.9750 148° Southeast 438 504 25,400 -2,507 Descending FlightAware ADS-B
Tue 05:30:09 PM 36.2540 33.0220 150° Southeast 452 520 22,900 -3,514 Descending FlightAware ADS-B
Tue 05:30:48 PM 36.1840 33.0730 150° Southeast 445 512 21,300 -1,680 Descending FlightAware ADS-B
Tue 05:31:24 PM 36.1270 33.1170 148° Southeast 435 501 20,800 -417 Descending FlightAware ADS-B
Tue 05:32:00 PM 36.0750 33.1570 148° Southeast 435 501 20,800 -2,438 Level FlightAware ADS-B
Tue 05:32:28 PM 36.0160 33.1980 151° Southeast 414 476 18,200 -2,714 Descending FlightAware ADS-B
Tue 05:33:24 PM 35.9350 33.2570 149° Southeast 411 473 17,000 -800 Descending FlightAware ADS-B
Tue 05:33:58 PM 35.8880 33.2920 149° Southeast 411 473 17,000 -2,169 Level FlightAware ADS-B
Tue 05:34:47 PM 35.8020 33.3550 149° Southeast 380 437 14,000 -2,169 Descending FlightAware ADS-B
Tue 05:35:21 PM 35.7590 33.3880 148° Southeast 380 437 14,000  Level FlightAware ADS-B
Tue 05:35:59 PM 35.7110 33.4250 148° Southeast 380 437 14,000 -2,640 Level FlightAware ADS-B
Tue 05:36:36 PM 35.6410 33.4710 152° Southeast 318 366 10,700 -3,042 Descending FlightAware ADS-B
Tue 05:37:10 PM 35.5970 33.5030 149° Southeast 285 328 10,400 -592 Descending FlightAware ADS-B
Tue 05:37:47 PM 35.5590 33.5300 150° Southeast 269 310 10,000 -857 Descending FlightAware ADS-B
Tue 05:38:06 PM 35.5360 33.5480 148° Southeast 270 311 9,600 -522 Descending FlightAware ADS-B
Tue 05:38:33 PM 35.5120 33.5670 147° Southeast 270 311 9,600  Level FlightAware ADS-B
Tue 05:38:57 PM 35.4910 33.5840 147° Southeast 270 311 9,600 -2,267 Level FlightAware ADS-B
Tue 05:39:18 PM 35.4610 33.6010 155° Southeast 260 299 7,900 -2,441 Descending FlightAware ADS-B
Tue 05:39:56 PM 35.4190 33.6320 149° Southeast 260 299 7,200 -667 Descending FlightAware ADS-B
Tue 05:40:21 PM 35.3970 33.6480 149° Southeast 260 299 7,200 -462 Level FlightAware ADS-B
Tue 05:41:01 PM 35.3590 33.6730 152° Southeast 243 280 6,700 -750 Descending FlightAware ADS-B
Tue 05:43:00 PM 35.1701 33.5094 215° Southwest  Level Estimated
Tue 05:44:00 PM 35.1547 33.4961 215° Southwest  Level Estimated
Tue 05:45:00 PM 35.1547 33.4961 22° Northeast  Level Estimated
Tue 05:45:19 PM 35.1060 33.7110 22° Northeast 2,900  Level FlightAware ADS-B
Tue 05:48:00 PM 35.1547 33.4961 286° West  Level Estimated
Tue 05:49:00 PM 35.1547 33.4961 22° Northeast  Level Estimated
Tue 05:50:00 PM 35.1547 33.4961 22° Northeast  Level Estimated
Tue 05:51:00 PM 35.1547 33.4961 22° Northeast  Level Estimated
Tue 05:52:00 PM 35.1547 33.4961 22° Northeast  Level Estimated
Tue 05:53:00 PM 35.1547 33.4961 22° Northeast  Level Estimated
Tue 05:54:00 PM 35.1547 33.4961 22° Northeast  Level Estimated
Tue 05:55:00 PM 35.1547 33.4961 22° Northeast  Level Estimated
Tue 05:56:00 PM 35.1547 33.4961 22° Northeast  Level Estimated

Login

Don't have an account? Register now (free) for customized features, flight alerts, and more!